createdAt,value
2023-02-03T00:01:54.383Z,2.83
2023-02-03T00:04:21.046Z,6.00
2023-02-03T00:06:47.925Z,5.17
2023-02-03T00:09:15.357Z,5.53
2023-02-03T00:11:41.986Z,4.90
2023-02-03T00:14:08.671Z,5.00
2023-02-03T00:16:35.596Z,5.20
2023-02-03T00:19:02.558Z,6.10
2023-02-03T00:21:29.193Z,8.67
2023-02-03T00:23:55.901Z,4.93
2023-02-03T00:26:24.033Z,6.23
2023-02-03T00:28:50.722Z,7.37
2023-02-03T00:31:19.956Z,6.00
2023-02-03T00:33:47.238Z,7.10
2023-02-03T00:36:14.271Z,6.90
2023-02-03T00:38:40.915Z,6.67
2023-02-03T00:41:07.878Z,8.10
2023-02-03T00:43:34.642Z,7.00
2023-02-03T00:46:01.340Z,9.33
2023-02-03T00:48:28.037Z,6.50
2023-02-03T00:50:54.717Z,8.20
2023-02-03T00:53:21.403Z,9.30
2023-02-03T00:55:48.033Z,5.87
2023-02-03T00:58:14.692Z,7.33
2023-02-03T01:00:41.328Z,12.63
2023-02-03T01:03:08.118Z,14.63
2023-02-03T01:05:34.775Z,11.37
2023-02-03T01:08:02.159Z,6.57
2023-02-03T01:10:29.376Z,16.83
2023-02-03T01:12:56.435Z,11.40
2023-02-03T01:15:23.175Z,10.70
2023-02-03T01:17:49.810Z,12.03
2023-02-03T01:20:17.048Z,13.93
2023-02-03T01:22:43.794Z,17.00
2023-02-03T01:25:10.633Z,10.40
2023-02-03T01:27:37.280Z,18.90
2023-02-03T01:30:04.355Z,11.63
2023-02-03T01:32:30.968Z,13.67
2023-02-03T01:34:57.574Z,20.10
2023-02-03T01:37:24.199Z,13.50
2023-02-03T01:39:50.808Z,16.27
2023-02-03T01:42:17.414Z,16.33
2023-02-03T01:44:52.050Z,11.10
2023-02-03T01:47:22.526Z,14.63
2023-02-03T01:50:08.451Z,7.47
2023-02-03T01:52:37.761Z,14.60
2023-02-03T01:55:07.359Z,10.63
2023-02-03T01:57:52.089Z,14.60
2023-02-03T02:00:19.586Z,20.50
2023-02-03T02:02:49.020Z,16.40
2023-02-03T02:05:48.206Z,13.07
2023-02-03T02:08:18.059Z,8.57
2023-02-03T02:10:45.413Z,5.70
2023-02-03T02:13:12.968Z,9.93
2023-02-03T02:15:58.472Z,10.73
2023-02-03T02:18:34.284Z,13.63
2023-02-03T02:21:22.764Z,13.20
2023-02-03T02:24:30.977Z,12.00
2023-02-03T02:27:34.887Z,15.00
2023-02-03T02:30:16.439Z,8.33
2023-02-03T02:32:47.933Z,10.80
2023-02-03T02:35:36.349Z,10.60
2023-02-03T02:38:16.083Z,17.73
2023-02-03T02:40:54.670Z,9.17
2023-02-03T02:44:00.333Z,5.43
2023-02-03T02:46:36.341Z,12.03
2023-02-03T02:49:26.848Z,9.60
2023-02-03T02:51:54.946Z,7.93
2023-02-03T02:54:25.162Z,7.03
2023-02-03T02:56:55.705Z,11.27
2023-02-03T02:59:22.334Z,11.20
2023-02-03T03:01:49.120Z,14.07
2023-02-03T03:04:22.763Z,11.13
2023-02-03T03:06:56.060Z,21.03
2023-02-03T03:09:26.802Z,13.57
2023-02-03T03:12:02.278Z,6.33
2023-02-03T03:14:32.007Z,9.53
2023-02-03T03:17:05.891Z,9.77
2023-02-03T03:19:37.760Z,5.80
2023-02-03T03:22:07.199Z,6.10
2023-02-03T03:24:41.791Z,11.07
2023-02-03T03:27:26.432Z,8.73
2023-02-03T03:30:36.353Z,8.50
2023-02-03T03:33:04.404Z,9.70
2023-02-03T03:35:46.690Z,9.23
2023-02-03T03:38:22.775Z,10.13
2023-02-03T03:40:55.801Z,9.63
2023-02-03T03:43:29.329Z,11.53
2023-02-03T03:46:01.773Z,15.37
2023-02-03T03:48:47.954Z,12.10
2023-02-03T03:51:24.323Z,8.73
2023-02-03T03:53:53.612Z,6.83
2023-02-03T03:56:27.754Z,10.63
2023-02-03T03:58:55.068Z,9.17
2023-02-03T04:01:23.814Z,12.13
2023-02-03T04:03:56.664Z,17.80
2023-02-03T04:06:23.749Z,6.20
2023-02-03T04:08:50.839Z,12.03
2023-02-03T04:11:37.427Z,9.73
2023-02-03T04:14:04.570Z,9.50
2023-02-03T04:16:31.195Z,7.17
2023-02-03T04:18:57.823Z,7.93
2023-02-03T04:21:24.515Z,4.20
2023-02-03T04:23:52.212Z,4.87
2023-02-03T04:26:18.808Z,11.70
2023-02-03T04:28:45.445Z,3.80
2023-02-03T04:31:12.158Z,8.23
2023-02-03T04:33:38.826Z,3.10
2023-02-03T04:36:05.732Z,3.33
2023-02-03T04:38:33.284Z,2.30
2023-02-03T04:41:00.183Z,5.67
2023-02-03T04:43:26.827Z,2.23
2023-02-03T04:45:53.467Z,3.03
2023-02-03T04:48:20.091Z,5.47
2023-02-03T04:50:46.766Z,11.63
2023-02-03T04:53:15.992Z,6.03
2023-02-03T04:55:47.469Z,4.50
2023-02-03T04:58:14.305Z,19.80
2023-02-03T05:00:40.998Z,6.83
2023-02-03T05:03:07.716Z,4.60
2023-02-03T05:05:34.359Z,9.03
2023-02-03T05:08:00.996Z,6.27
2023-02-03T05:10:27.795Z,10.00
2023-02-03T05:12:54.553Z,9.60
2023-02-03T05:15:21.227Z,10.53
2023-02-03T05:17:47.891Z,4.90
2023-02-03T05:20:14.493Z,8.67
2023-02-03T05:22:41.129Z,5.50
2023-02-03T05:25:08.339Z,10.73
2023-02-03T05:27:34.936Z,13.03
2023-02-03T05:30:01.568Z,13.10
2023-02-03T05:32:28.182Z,7.30
2023-02-03T05:34:54.758Z,4.27
2023-02-03T05:37:21.394Z,7.80
2023-02-03T05:39:47.995Z,10.43
2023-02-03T05:42:14.565Z,5.70
2023-02-03T05:44:41.379Z,9.30
2023-02-03T05:47:08.097Z,9.63
2023-02-03T05:49:34.856Z,4.43
2023-02-03T05:52:01.514Z,3.80
2023-02-03T05:54:28.131Z,4.30
2023-02-03T05:56:54.725Z,8.13
2023-02-03T05:59:21.419Z,3.67
2023-02-03T06:01:48.098Z,13.40
2023-02-03T06:04:14.794Z,3.07
2023-02-03T06:06:41.404Z,9.20
2023-02-03T06:09:09.199Z,6.40
2023-02-03T06:11:36.352Z,4.03
2023-02-03T06:14:03.890Z,11.60
2023-02-03T06:16:30.635Z,4.03
2023-02-03T06:18:59.614Z,6.73
2023-02-03T06:21:27.014Z,4.43
2023-02-03T06:23:54.581Z,4.87
2023-02-03T06:26:21.245Z,2.70
2023-02-03T06:28:47.862Z,5.87
2023-02-03T06:31:14.576Z,8.80
2023-02-03T06:33:41.215Z,5.13
2023-02-03T06:36:08.078Z,6.80
2023-02-03T06:38:34.729Z,8.03
2023-02-03T06:41:01.415Z,1.97
2023-02-03T06:43:27.994Z,3.33
2023-02-03T06:45:54.658Z,3.97
2023-02-03T06:48:21.303Z,3.40
2023-02-03T06:50:48.795Z,8.43
2023-02-03T06:53:15.766Z,11.07
2023-02-03T06:55:42.389Z,7.37
2023-02-03T06:58:09.187Z,12.70
2023-02-03T07:00:35.967Z,6.33
2023-02-03T07:03:02.928Z,9.20
2023-02-03T07:05:29.820Z,7.70
2023-02-03T07:07:56.550Z,10.00
2023-02-03T07:10:23.447Z,11.77
2023-02-03T07:12:51.736Z,9.73
2023-02-03T07:15:18.813Z,14.40
2023-02-03T07:17:54.189Z,16.73
2023-02-03T07:20:22.202Z,12.60
2023-02-03T07:23:06.927Z,8.77
2023-02-03T07:25:33.566Z,11.33
2023-02-03T07:28:00.251Z,3.30
2023-02-03T07:30:27.262Z,7.80
2023-02-03T07:32:54.278Z,7.73
2023-02-03T07:35:21.029Z,4.73
2023-02-03T07:37:47.724Z,7.23
2023-02-03T07:40:15.350Z,9.10
2023-02-03T07:42:43.419Z,4.63
2023-02-03T07:45:11.326Z,9.20
2023-02-03T07:47:38.054Z,7.20
2023-02-03T07:50:05.297Z,5.90
2023-02-03T07:52:31.881Z,14.03
2023-02-03T07:54:58.472Z,7.23
2023-02-03T07:57:25.222Z,9.70
2023-02-03T07:59:51.850Z,13.93
2023-02-03T08:02:18.697Z,19.33
2023-02-03T08:04:45.341Z,2.30
2023-02-03T08:07:11.979Z,19.53
2023-02-03T08:09:38.663Z,8.03
2023-02-03T08:12:05.569Z,9.20
2023-02-03T08:14:32.164Z,15.43
2023-02-03T08:16:58.764Z,13.57
2023-02-03T08:19:25.413Z,11.83
2023-02-03T08:21:52.004Z,12.47
2023-02-03T08:24:18.582Z,12.83
2023-02-03T08:26:45.174Z,7.57
2023-02-03T08:29:11.822Z,31.93
2023-02-03T08:31:39.177Z,14.40
2023-02-03T08:34:05.887Z,21.43
2023-02-03T08:36:32.520Z,20.27
2023-02-03T08:38:59.104Z,24.57
2023-02-03T08:41:25.715Z,39.97
2023-02-03T08:43:53.994Z,12.90
2023-02-03T08:46:20.651Z,15.10
2023-02-03T08:48:47.260Z,19.07
2023-02-03T08:51:16.872Z,27.33
2023-02-03T08:53:44.270Z,30.93
2023-02-03T08:56:12.539Z,30.07
2023-02-03T08:58:39.564Z,22.70
2023-02-03T09:01:11.253Z,33.90
2023-02-03T09:03:38.491Z,32.40
2023-02-03T09:06:06.534Z,24.63
2023-02-03T09:08:33.281Z,23.40
2023-02-03T09:11:00.160Z,33.77
2023-02-03T09:13:26.750Z,20.43
2023-02-03T09:15:53.365Z,24.93
2023-02-03T09:18:19.999Z,32.07
2023-02-03T09:20:46.605Z,28.70
2023-02-03T09:23:13.362Z,38.60
2023-02-03T09:25:39.952Z,28.23
2023-02-03T09:28:06.839Z,22.30
2023-02-03T09:30:33.565Z,38.47
2023-02-03T09:33:00.185Z,28.97
2023-02-03T09:35:27.221Z,25.23
2023-02-03T09:37:53.872Z,35.53
2023-02-03T09:40:29.839Z,30.20
2023-02-03T09:43:26.038Z,42.83
2023-02-03T09:45:52.705Z,42.00
2023-02-03T09:48:24.213Z,20.97
2023-02-03T09:50:52.088Z,51.27
2023-02-03T09:53:45.132Z,34.43
2023-02-03T09:56:27.242Z,39.80
2023-02-03T09:58:53.981Z,39.07
2023-02-03T10:01:22.335Z,33.60
2023-02-03T10:03:54.237Z,20.60
2023-02-03T10:06:33.035Z,34.97
2023-02-03T10:09:14.291Z,35.87
2023-02-03T10:11:49.707Z,35.70
2023-02-03T10:14:19.150Z,37.13
2023-02-03T10:17:18.250Z,43.27
2023-02-03T10:19:51.353Z,47.87
2023-02-03T10:22:22.093Z,74.80
2023-02-03T10:25:03.076Z,45.53
2023-02-03T10:27:33.223Z,36.23
2023-02-03T10:30:04.136Z,48.67
2023-02-03T10:32:30.852Z,56.03
2023-02-03T10:34:57.678Z,61.73
2023-02-03T10:37:34.903Z,23.60
2023-02-03T10:40:02.560Z,20.33
2023-02-03T10:42:52.971Z,47.13
2023-02-03T10:45:20.989Z,74.27
2023-02-03T10:47:58.034Z,60.63
2023-02-03T10:50:31.635Z,35.53
2023-02-03T10:53:20.047Z,44.83
2023-02-03T10:55:50.430Z,42.17
2023-02-03T10:58:25.859Z,34.57
2023-02-03T11:00:58.668Z,29.13
2023-02-03T11:03:31.842Z,34.60
2023-02-03T11:06:17.056Z,64.43
2023-02-03T11:08:46.605Z,52.43
2023-02-03T11:11:24.938Z,30.47
2023-02-03T11:14:04.713Z,47.97
2023-02-03T11:16:34.254Z,46.33
2023-02-03T11:19:07.249Z,51.10
2023-02-03T11:21:46.227Z,31.40
2023-02-03T11:24:26.353Z,26.40
2023-02-03T11:27:04.304Z,50.67
2023-02-03T11:29:34.399Z,36.60
2023-02-03T11:32:06.565Z,44.90
2023-02-03T11:34:36.805Z,30.27
2023-02-03T11:37:31.840Z,47.30
2023-02-03T11:40:07.636Z,40.20
2023-02-03T11:42:36.109Z,31.03
2023-02-03T11:45:30.577Z,49.40
2023-02-03T11:48:02.133Z,52.63
2023-02-03T11:50:35.846Z,48.70
2023-02-03T11:53:13.276Z,30.03
2023-02-03T11:56:08.580Z,45.53
2023-02-03T11:59:12.666Z,26.60
2023-02-03T12:02:04.818Z,23.97
2023-02-03T12:05:10.987Z,39.03
2023-02-03T12:07:40.333Z,28.60
2023-02-03T12:10:28.999Z,28.53
2023-02-03T12:13:18.813Z,29.77
2023-02-03T12:15:51.259Z,26.20
2023-02-03T12:18:31.643Z,24.90
2023-02-03T12:21:32.734Z,26.80
2023-02-03T12:24:24.913Z,26.83
2023-02-03T12:27:26.309Z,22.63
2023-02-03T12:30:22.201Z,33.80
2023-02-03T12:32:54.092Z,38.23
2023-02-03T12:35:38.872Z,34.40
2023-02-03T12:38:21.475Z,50.43
2023-02-03T12:40:55.565Z,33.50
2023-02-03T12:43:30.692Z,39.47
2023-02-03T12:46:03.068Z,52.90
2023-02-03T12:48:42.120Z,32.33
2023-02-03T12:51:16.057Z,38.70
2023-02-03T12:53:50.083Z,33.00
2023-02-03T12:56:27.070Z,48.87
2023-02-03T12:59:09.446Z,32.80
2023-02-03T13:02:01.420Z,36.93
2023-02-03T13:04:35.705Z,38.73
2023-02-03T13:07:38.910Z,24.30
2023-02-03T13:10:53.955Z,22.63
2023-02-03T13:13:59.012Z,40.23
2023-02-03T13:16:32.819Z,29.57
2023-02-03T13:19:05.797Z,42.87
2023-02-03T13:21:32.555Z,32.63
2023-02-03T13:23:59.383Z,41.87
2023-02-03T13:26:55.176Z,34.80
2023-02-03T13:30:05.573Z,22.90
2023-02-03T13:33:02.733Z,25.00
2023-02-03T13:35:53.791Z,33.00
2023-02-03T13:38:42.430Z,15.63
2023-02-03T13:41:28.139Z,33.83
2023-02-03T13:43:57.015Z,38.37
2023-02-03T13:46:31.052Z,32.63
2023-02-03T13:49:01.221Z,36.23
2023-02-03T13:51:34.593Z,43.73
2023-02-03T13:54:06.056Z,35.70
2023-02-03T13:56:33.722Z,35.00
2023-02-03T13:59:03.165Z,66.63
2023-02-03T14:01:35.755Z,29.53
2023-02-03T14:04:04.721Z,43.77
2023-02-03T14:06:40.725Z,24.47
2023-02-03T14:09:22.294Z,36.77
2023-02-03T14:11:51.135Z,22.67
2023-02-03T14:14:17.722Z,36.07
2023-02-03T14:16:49.388Z,41.97
2023-02-03T14:19:22.341Z,25.73
2023-02-03T14:21:53.084Z,34.37
2023-02-03T14:24:20.098Z,24.40
2023-02-03T14:26:53.056Z,18.27
2023-02-03T14:29:27.220Z,19.37
2023-02-03T14:31:56.138Z,35.20
2023-02-03T14:34:29.409Z,40.50
2023-02-03T14:36:56.679Z,22.43
2023-02-03T14:39:57.345Z,37.80
2023-02-03T14:42:39.026Z,24.77
2023-02-03T14:45:35.503Z,20.90
2023-02-03T14:48:43.948Z,37.83
2023-02-03T14:51:31.437Z,43.57
2023-02-03T14:54:13.175Z,43.30
2023-02-03T14:57:15.635Z,33.50
2023-02-03T15:00:13.077Z,22.67
2023-02-03T15:03:11.515Z,36.97
2023-02-03T15:05:44.426Z,20.60
2023-02-03T15:08:29.723Z,30.97
2023-02-03T15:10:56.361Z,51.17
2023-02-03T15:13:28.501Z,35.30
2023-02-03T15:16:01.666Z,27.73
2023-02-03T15:18:36.165Z,36.07
2023-02-03T15:21:03.591Z,26.40
2023-02-03T15:23:38.574Z,19.87
2023-02-03T15:26:14.276Z,27.50
2023-02-03T15:28:40.994Z,39.43
2023-02-03T15:31:22.618Z,50.80
2023-02-03T15:33:50.804Z,34.23
2023-02-03T15:36:22.136Z,42.83
2023-02-03T15:39:10.728Z,43.30
2023-02-03T15:41:39.290Z,32.83
2023-02-03T15:44:26.559Z,32.40
2023-02-03T15:46:54.669Z,25.67
2023-02-03T15:49:32.647Z,29.53
2023-02-03T15:52:17.008Z,34.37
2023-02-03T15:54:53.376Z,35.80
2023-02-03T15:57:28.053Z,58.00
2023-02-03T15:59:58.391Z,36.10
2023-02-03T16:02:36.514Z,40.50
2023-02-03T16:05:18.618Z,26.53
2023-02-03T16:07:45.216Z,22.47
2023-02-03T16:10:44.481Z,26.57
2023-02-03T16:13:26.137Z,30.83
2023-02-03T16:16:13.983Z,29.73
2023-02-03T16:18:40.833Z,34.53
2023-02-03T16:21:37.681Z,30.47
2023-02-03T16:24:06.292Z,24.33
2023-02-03T16:26:36.508Z,46.03
2023-02-03T16:29:30.617Z,26.33
2023-02-03T16:32:15.908Z,32.57
2023-02-03T16:35:01.263Z,51.30
2023-02-03T16:37:53.354Z,40.93
2023-02-03T16:40:40.899Z,39.87
2023-02-03T16:43:33.075Z,37.50
2023-02-03T16:46:19.107Z,53.40
2023-02-03T16:49:04.963Z,27.10
2023-02-03T16:51:40.185Z,20.43
2023-02-03T16:54:10.858Z,28.60
2023-02-03T16:56:37.515Z,25.30
2023-02-03T16:59:04.310Z,15.40
2023-02-03T17:01:30.991Z,38.00
2023-02-03T17:03:57.628Z,31.00
2023-02-03T17:06:24.307Z,49.73
2023-02-03T17:08:51.850Z,29.03
2023-02-03T17:11:20.896Z,42.13
2023-02-03T17:13:48.194Z,42.43
2023-02-03T17:16:20.387Z,40.90
2023-02-03T17:18:47.415Z,28.77
2023-02-03T17:21:33.201Z,49.80
2023-02-03T17:24:00.181Z,43.03
2023-02-03T17:26:26.825Z,52.57
2023-02-03T17:28:53.511Z,46.30
2023-02-03T17:31:20.795Z,41.43
2023-02-03T17:33:51.688Z,64.73
2023-02-03T17:36:19.947Z,41.73
2023-02-03T17:55:18.535Z,52.07
2023-02-03T17:57:45.237Z,51.93
2023-02-03T18:00:12.372Z,41.00
2023-02-03T18:02:39.214Z,43.33
2023-02-03T18:05:06.253Z,46.60
2023-02-03T18:07:32.875Z,51.17
2023-02-03T18:09:59.499Z,22.80
2023-02-03T18:12:26.096Z,30.30
2023-02-03T18:14:52.667Z,46.93
2023-02-03T18:17:19.269Z,40.67
2023-02-03T18:19:49.202Z,43.57
2023-02-03T18:22:18.638Z,19.03
2023-02-03T18:24:50.630Z,33.20
2023-02-03T18:27:17.589Z,45.90
2023-02-03T18:29:48.191Z,44.20
2023-02-03T18:32:15.930Z,54.43
2023-02-03T18:34:42.573Z,49.70
2023-02-03T18:37:09.187Z,20.33
2023-02-03T18:39:35.957Z,37.83
2023-02-03T18:42:03.340Z,21.90
2023-02-03T18:44:31.567Z,38.93
2023-02-03T18:47:06.389Z,49.77
2023-02-03T18:49:34.348Z,34.27
2023-02-03T18:52:01.096Z,24.87
2023-02-03T18:54:29.555Z,32.03
2023-02-03T18:56:58.850Z,31.00
2023-02-03T18:59:26.085Z,41.47
2023-02-03T19:01:53.015Z,29.00
2023-02-03T19:04:20.031Z,31.23
2023-02-03T19:06:47.539Z,22.40
2023-02-03T19:09:16.937Z,38.10
2023-02-03T19:11:43.965Z,59.67
2023-02-03T19:14:13.167Z,35.37
2023-02-03T19:16:40.060Z,34.17
2023-02-03T19:19:06.691Z,48.97
2023-02-03T19:21:33.438Z,55.00
2023-02-03T19:24:00.060Z,31.57
2023-02-03T19:26:27.785Z,39.03
2023-02-03T19:28:55.705Z,34.70
2023-02-03T19:31:22.608Z,62.97
2023-02-03T19:33:49.532Z,37.40
2023-02-03T19:36:16.300Z,44.10
2023-02-03T19:38:42.994Z,29.40
2023-02-03T19:41:11.539Z,26.30
2023-02-03T19:43:38.174Z,27.50
2023-02-03T19:46:05.005Z,12.57
2023-02-03T19:48:31.808Z,15.90
2023-02-03T19:50:58.505Z,17.63
2023-02-03T19:53:25.213Z,15.57
2023-02-03T19:55:52.088Z,9.43
2023-02-03T19:58:18.750Z,15.83
2023-02-03T20:00:45.386Z,17.40
2023-02-03T20:03:11.956Z,31.23
2023-02-03T20:05:38.651Z,9.07
2023-02-03T20:08:05.785Z,17.67
2023-02-03T20:10:33.132Z,11.90
2023-02-03T20:13:00.284Z,5.60
2023-02-03T20:15:27.194Z,9.10
2023-02-03T20:17:54.330Z,4.43
2023-02-03T20:20:21.372Z,9.97
2023-02-03T20:22:48.769Z,20.63
2023-02-03T20:25:16.355Z,10.13
2023-02-03T20:27:43.073Z,14.30
2023-02-03T20:30:10.921Z,8.73
2023-02-03T20:32:37.599Z,15.13
2023-02-03T20:35:06.150Z,12.17
2023-02-03T20:37:32.967Z,11.40
2023-02-03T20:39:59.604Z,5.13
2023-02-03T20:42:26.214Z,8.10
2023-02-03T20:44:52.925Z,5.47
2023-02-03T20:47:21.240Z,4.60
2023-02-03T20:49:49.413Z,11.83
2023-02-03T20:52:18.338Z,6.53
2023-02-03T20:54:45.199Z,5.90
2023-02-03T20:57:17.705Z,5.37
2023-02-03T20:59:45.670Z,4.60
2023-02-03T21:02:22.685Z,3.37
2023-02-03T21:04:57.942Z,3.07
2023-02-03T21:07:30.680Z,3.43
2023-02-03T21:09:58.937Z,1.97
2023-02-03T21:12:26.882Z,7.10
2023-02-03T21:14:55.013Z,4.63
2023-02-03T21:17:26.401Z,2.07
2023-02-03T21:19:54.237Z,2.07
2023-02-03T21:22:25.619Z,7.10
2023-02-03T21:24:54.592Z,5.97
2023-02-03T21:27:34.660Z,3.53
2023-02-03T21:30:22.673Z,6.77
2023-02-03T21:32:49.271Z,5.60
2023-02-03T21:35:25.749Z,5.60
2023-02-03T21:37:56.937Z,2.03
2023-02-03T21:40:26.794Z,1.70
2023-02-03T21:42:55.398Z,2.50
2023-02-03T21:45:22.478Z,1.60
2023-02-03T21:47:51.143Z,1.33
2023-02-03T21:50:32.642Z,1.10
2023-02-03T21:53:21.944Z,2.80
2023-02-03T21:55:48.883Z,5.03
2023-02-03T21:58:36.068Z,2.27
2023-02-03T22:01:06.280Z,2.83
2023-02-03T22:03:35.440Z,1.13
2023-02-03T22:06:08.077Z,1.07
2023-02-03T22:08:41.035Z,0.80
2023-02-03T22:11:08.332Z,0.90
2023-02-03T22:13:35.574Z,1.07
2023-02-03T22:16:02.861Z,5.80
2023-02-03T22:18:29.682Z,2.03
2023-02-03T22:20:56.353Z,0.73
2023-02-03T22:23:23.433Z,1.97
2023-02-03T22:25:50.101Z,3.10
2023-02-03T22:28:17.098Z,1.00
2023-02-03T22:30:43.949Z,2.77
2023-02-03T22:33:10.686Z,1.87
2023-02-03T22:35:37.349Z,1.03
2023-02-03T22:38:04.031Z,2.73
2023-02-03T22:40:30.983Z,5.47
2023-02-03T22:42:57.978Z,1.03
2023-02-03T22:45:24.965Z,1.57
2023-02-03T22:47:51.648Z,1.80
2023-02-03T22:50:24.632Z,10.20
2023-02-03T22:52:57.750Z,1.17
2023-02-03T22:55:24.405Z,7.20
2023-02-03T22:57:52.428Z,5.90
2023-02-03T23:00:24.595Z,4.67
2023-02-03T23:02:51.620Z,4.37
2023-02-03T23:05:19.006Z,3.10
2023-02-03T23:07:46.424Z,2.80
2023-02-03T23:10:25.862Z,4.10
2023-02-03T23:12:52.509Z,1.10
2023-02-03T23:15:19.337Z,2.57
2023-02-03T23:17:46.355Z,2.90
2023-02-03T23:20:14.656Z,0.70
2023-02-03T23:22:42.633Z,1.13
2023-02-03T23:25:10.051Z,2.00
2023-02-03T23:27:36.875Z,0.83
2023-02-03T23:30:04.818Z,2.53
2023-02-03T23:32:33.611Z,0.77
2023-02-03T23:35:20.225Z,1.43
2023-02-03T23:37:47.100Z,1.33
2023-02-03T23:40:14.153Z,23.63
2023-02-03T23:42:40.834Z,10.33
2023-02-03T23:45:11.616Z,0.93
2023-02-03T23:47:43.093Z,0.80
2023-02-03T23:50:12.939Z,0.70
2023-02-03T23:52:39.646Z,0.83
2023-02-03T23:55:09.229Z,4.40
2023-02-03T23:57:35.919Z,1.10
